Time;durP1;ratioP1;P1;durP2;ratioP2;P2;SDS_P1;SDS_P2;PMS_P1;PMS_P2;Temp;Humidity;BMP_temperature;BMP_pressure;BME280_temperature;BME280_humidity;BME280_pressure;Samples;Min_cycle;Max_cycle;Signal;HPM_P1;HPM_P2
2023/10/03 00:02:03;;;;;;;19.27;11.98;;;;;;;-148.88;100.00;-17125.47;5032256;28;20056;-74
2023/10/03 00:04:28;;;;;;;19.55;10.73;;;;;;;-148.88;100.00;-17125.47;5032474;28;20570;-74
2023/10/03 00:06:53;;;;;;;17.33;10.82;;;;;;;-148.88;100.00;-17125.47;5033885;28;20116;-74
2023/10/03 00:09:19;;;;;;;19.63;11.05;;;;;;;-148.88;100.00;-17125.47;5033375;28;20029;-74
2023/10/03 00:11:44;;;;;;;20.05;11.90;;;;;;;-148.88;100.00;-17125.47;5033520;28;20389;-74
2023/10/03 00:14:11;;;;;;;18.70;10.88;;;;;;;-148.88;100.00;-17125.47;5032320;28;20497;-74
2023/10/03 00:16:37;;;;;;;17.88;10.75;;;;;;;-148.88;100.00;-17125.47;5032198;28;20022;-74
2023/10/03 00:19:03;;;;;;;18.80;11.27;;;;;;;-148.88;100.00;-17125.47;5033386;28;20445;-74
2023/10/03 00:21:28;;;;;;;21.83;11.80;;;;;;;-148.88;100.00;-17125.47;5033413;28;20100;-74
2023/10/03 00:23:54;;;;;;;19.23;11.07;;;;;;;-148.88;100.00;-17125.47;5032135;28;20036;-74
2023/10/03 00:26:22;;;;;;;21.35;12.48;;;;;;;-148.88;100.00;-17125.47;5032187;28;20048;-75
2023/10/03 00:28:49;;;;;;;24.63;12.40;;;;;;;-148.88;100.00;-17125.47;5033254;28;20029;-74
2023/10/03 00:31:15;;;;;;;20.77;11.85;;;;;;;-148.88;100.00;-17125.47;5033245;28;20049;-74
2023/10/03 00:33:41;;;;;;;21.08;11.75;;;;;;;-148.88;100.00;-17125.47;5031922;28;20064;-75
2023/10/03 00:36:23;;;;;;;19.88;11.23;;;;;;;-148.88;100.00;-17125.47;5033263;28;20075;-74
2023/10/03 00:38:50;;;;;;;19.77;11.65;;;;;;;-148.88;100.00;-17125.47;5031782;28;20083;-74
2023/10/03 00:41:17;;;;;;;19.70;11.25;;;;;;;-148.88;100.00;-17125.47;5033137;28;20036;-74
2023/10/03 00:44:01;;;;;;;19.38;11.40;;;;;;;-148.88;100.00;-17125.47;5033107;28;20040;-75
2023/10/03 00:46:29;;;;;;;18.58;11.70;;;;;;;-148.88;100.00;-17125.47;5031850;28;20189;-74
2023/10/03 00:48:55;;;;;;;20.77;11.68;;;;;;;-148.88;100.00;-17125.47;5031742;28;20112;-74
2023/10/03 00:51:21;;;;;;;18.20;11.50;;;;;;;-148.88;100.00;-17125.47;5033008;28;20031;-74
2023/10/03 00:53:47;;;;;;;19.73;12.20;;;;;;;-148.88;100.00;-17125.47;5034180;28;20029;-74
2023/10/03 00:56:14;;;;;;;19.45;10.93;;;;;;;-148.88;100.00;-17125.47;5032995;28;20037;-75
2023/10/03 00:58:41;;;;;;;20.35;11.43;;;;;;;-148.88;100.00;-17125.47;5032914;28;20116;-74
2023/10/03 01:01:09;;;;;;;19.58;11.52;;;;;;;-148.88;100.00;-17125.47;5031603;28;20021;-74
2023/10/03 01:03:36;;;;;;;22.55;11.95;;;;;;;-148.88;100.00;-17125.47;5032896;28;20531;-74
2023/10/03 01:06:10;;;;;;;20.80;11.40;;;;;;;-148.88;100.00;-17125.47;5032830;28;20053;-74
2023/10/03 01:08:39;;;;;;;19.40;11.98;;;;;;;-148.88;100.00;-17125.47;5031271;28;20409;-74
2023/10/03 01:11:15;;;;;;;20.13;12.20;;;;;;;-148.88;100.00;-17125.47;5032815;28;20029;-74
2023/10/03 01:13:40;;;;;;;19.85;11.65;;;;;;;-148.88;100.00;-17125.47;5031466;28;20026;-74
2023/10/03 01:16:06;;;;;;;19.98;11.32;;;;;;;-148.88;100.00;-17125.47;5036637;28;20044;-74
2023/10/03 01:18:33;;;;;;;22.45;12.73;;;;;;;-148.88;100.00;-17125.47;5037111;28;20036;-74
2023/10/03 01:21:03;;;;;;;21.50;12.48;;;;;;;-148.88;100.00;-17125.47;5036749;28;20104;-74
2023/10/03 01:23:40;;;;;;;22.48;12.70;;;;;;;-148.88;100.00;-17125.47;5036774;28;20497;-75
2023/10/03 01:26:07;;;;;;;21.20;11.88;;;;;;;-148.88;100.00;-17125.47;5037065;28;20386;-74
2023/10/03 01:28:32;;;;;;;19.30;11.75;;;;;;;-148.88;100.00;-17125.47;5035349;28;20095;-74
2023/10/03 01:30:57;;;;;;;20.50;12.52;;;;;;;-148.88;100.00;-17125.47;5036624;28;20105;-74
2023/10/03 01:33:26;;;;;;;23.95;12.18;;;;;;;-148.88;100.00;-17125.47;5035221;28;20178;-74
2023/10/03 01:35:55;;;;;;;21.73;12.63;;;;;;;-148.88;100.00;-17125.47;5036538;28;20022;-74
2023/10/03 01:38:21;;;;;;;21.23;12.32;;;;;;;-148.88;100.00;-17125.47;5036425;28;20111;-74
2023/10/03 01:40:54;;;;;;;22.23;12.52;;;;;;;-148.88;100.00;-17125.47;5036403;28;20072;-74
2023/10/03 01:43:20;;;;;;;22.23;12.50;;;;;;;-148.88;100.00;-17125.47;5036367;28;20026;-74
2023/10/03 01:45:45;;;;;;;21.05;12.70;;;;;;;-148.88;100.00;-17125.47;5035048;28;20056;-74
2023/10/03 01:48:12;;;;;;;21.77;13.27;;;;;;;-148.88;100.00;-17125.47;5034896;28;20517;-74
2023/10/03 01:50:38;;;;;;;23.85;12.82;;;;;;;-148.88;100.00;-17125.47;5036455;28;20029;-74
2023/10/03 01:53:04;;;;;;;23.75;12.80;;;;;;;-148.88;100.00;-17125.47;5034814;28;20022;-74
2023/10/03 01:55:29;;;;;;;20.65;12.32;;;;;;;-148.88;100.00;-17125.47;5036080;28;20025;-74
2023/10/03 01:57:55;;;;;;;21.55;12.93;;;;;;;-148.88;100.00;-17125.47;5036082;28;20056;-74
2023/10/03 02:00:24;;;;;;;21.45;12.40;;;;;;;-148.88;100.00;-17125.47;5035974;28;20049;-74
2023/10/03 02:02:53;;;;;;;20.08;12.30;;;;;;;-148.88;100.00;-17125.47;5034654;28;20103;-74
2023/10/03 02:05:23;;;;;;;21.90;12.65;;;;;;;-148.88;100.00;-17125.47;5034742;28;20029;-74
2023/10/03 02:07:51;;;;;;;23.58;13.30;;;;;;;-148.88;100.00;-17125.47;5035821;28;20104;-74
2023/10/03 02:10:17;;;;;;;23.15;13.10;;;;;;;-148.88;100.00;-17125.47;5035640;28;20045;-74
2023/10/03 02:12:49;;;;;;;22.70;12.35;;;;;;;-148.88;100.00;-17125.47;5035766;28;20025;-74
2023/10/03 02:15:23;;;;;;;22.55;12.52;;;;;;;-148.88;100.00;-17125.47;5034612;28;20021;-74
2023/10/03 02:17:50;;;;;;;23.10;13.00;;;;;;;-148.88;100.00;-17125.47;5035917;28;20060;-74
2023/10/03 02:20:25;;;;;;;23.35;13.20;;;;;;;-148.88;100.00;-17125.47;5034299;28;20608;-74
2023/10/03 02:22:55;;;;;;;24.63;12.63;;;;;;;-148.88;100.00;-17125.47;5035717;28;20036;-74
2023/10/03 02:25:37;;;;;;;25.08;12.75;;;;;;;-148.88;100.00;-17125.47;5034247;28;20575;-74
2023/10/03 02:28:05;;;;;;;20.75;12.55;;;;;;;-148.88;100.00;-17125.47;5035551;28;20029;-74
2023/10/03 02:30:31;;;;;;;24.65;13.40;;;;;;;-148.88;100.00;-17125.47;5035387;28;20029;-74
2023/10/03 02:32:57;;;;;;;22.73;13.15;;;;;;;-148.88;100.00;-17125.47;5034055;28;20025;-74
2023/10/03 02:35:25;;;;;;;21.10;12.40;;;;;;;-148.88;100.00;-17125.47;5034104;28;20079;-74
2023/10/03 02:38:03;;;;;;;22.85;12.27;;;;;;;-148.88;100.00;-17125.47;5035353;28;20125;-73
2023/10/03 02:40:30;;;;;;;20.98;12.18;;;;;;;-148.88;100.00;-17125.47;5035340;28;20021;-74
2023/10/03 02:42:55;;;;;;;22.25;13.55;;;;;;;-148.88;100.00;-17125.47;5034016;28;20554;-74
2023/10/03 02:45:23;;;;;;;22.77;12.23;;;;;;;-148.88;100.00;-17125.47;5035273;28;20084;-74
2023/10/03 02:47:56;;;;;;;25.20;13.27;;;;;;;-148.88;100.00;-17125.47;5035241;28;20022;-74
2023/10/03 02:50:28;;;;;;;23.07;12.97;;;;;;;-148.88;100.00;-17125.47;5035410;28;20032;-74
2023/10/03 02:52:57;;;;;;;25.67;13.50;;;;;;;-148.88;100.00;-17125.47;5035643;28;20275;-74
2023/10/03 02:55:22;;;;;;;21.88;12.05;;;;;;;-148.88;100.00;-17125.47;5035324;28;20032;-74
2023/10/03 02:57:48;;;;;;;21.30;12.77;;;;;;;-148.88;100.00;-17125.47;5035082;28;20021;-74
2023/10/03 03:00:15;;;;;;;23.65;12.75;;;;;;;-148.88;100.00;-17125.47;5034840;28;20021;-75
2023/10/03 03:02:50;;;;;;;21.60;11.77;;;;;;;-148.88;100.00;-17125.47;5034914;28;20378;-74
2023/10/03 03:05:17;;;;;;;24.23;12.45;;;;;;;-148.88;100.00;-17125.47;5034993;28;20397;-74
2023/10/03 03:07:46;;;;;;;21.35;12.63;;;;;;;-148.88;100.00;-17125.47;5034910;28;20482;-74
2023/10/03 03:10:18;;;;;;;22.55;12.55;;;;;;;-148.88;100.00;-17125.47;5034684;28;20123;-74
2023/10/03 03:12:46;;;;;;;22.00;12.15;;;;;;;-148.88;100.00;-17125.47;5034699;28;20021;-74
2023/10/03 03:15:24;;;;;;;21.42;12.20;;;;;;;-148.88;100.00;-17125.47;5034643;28;20036;-74
2023/10/03 03:17:50;;;;;;;23.05;12.98;;;;;;;-148.88;100.00;-17125.47;5034714;28;20032;-74
2023/10/03 03:20:27;;;;;;;22.13;12.52;;;;;;;-148.88;100.00;-17125.47;5034475;28;20067;-74
2023/10/03 03:22:52;;;;;;;24.60;12.75;;;;;;;-148.88;100.00;-17125.47;5033348;28;20017;-74
2023/10/03 03:25:24;;;;;;;23.85;12.82;;;;;;;-148.88;100.00;-17125.47;5034736;28;20063;-74
2023/10/03 03:27:52;;;;;;;22.98;12.23;;;;;;;-148.88;100.00;-17125.47;5033243;28;20075;-74
2023/10/03 03:33:09;;;;;;;25.23;13.02;;;;;;;-148.88;100.00;-17125.47;5018549;28;20034;-74
2023/10/03 03:35:38;;;;;;;24.65;12.57;;;;;;;-148.88;100.00;-17125.47;5034696;28;20052;-74
2023/10/03 03:38:05;;;;;;;23.50;12.75;;;;;;;-148.88;100.00;-17125.47;5033676;28;20032;-74
2023/10/03 03:40:34;;;;;;;23.25;12.75;;;;;;;-148.88;100.00;-17125.47;5034429;28;20021;-74
2023/10/03 03:43:00;;;;;;;20.98;12.23;;;;;;;-148.88;100.00;-17125.47;5034181;28;20393;-74
2023/10/03 03:45:26;;;;;;;24.10;12.68;;;;;;;-148.88;100.00;-17125.47;5034175;28;20017;-74
2023/10/03 03:47:55;;;;;;;25.15;13.02;;;;;;;-148.88;100.00;-17125.47;5032776;28;20363;-74
2023/10/03 03:50:21;;;;;;;22.63;12.15;;;;;;;-148.88;100.00;-17125.47;5033965;28;20075;-74
2023/10/03 03:52:48;;;;;;;23.08;12.65;;;;;;;-148.88;100.00;-17125.47;5032753;28;20114;-74
2023/10/03 03:55:17;;;;;;;20.42;11.68;;;;;;;-148.88;100.00;-17125.47;5034035;28;20032;-74
2023/10/03 03:57:45;;;;;;;22.15;11.93;;;;;;;-148.88;100.00;-17125.47;5033913;28;20021;-74
2023/10/03 04:00:14;;;;;;;20.95;12.13;;;;;;;-148.88;100.00;-17125.47;5032509;28;20222;-74
2023/10/03 04:02:40;;;;;;;25.02;12.65;;;;;;;-148.88;100.00;-17125.47;5033893;28;20045;-74
2023/10/03 04:05:07;;;;;;;18.90;12.02;;;;;;;-148.88;100.00;-17125.47;5033800;28;20052;-74
2023/10/03 04:07:33;;;;;;;21.95;12.25;;;;;;;-148.88;100.00;-17125.47;5032568;28;20575;-74
2023/10/03 04:09:59;;;;;;;22.20;12.60;;;;;;;-148.88;100.00;-17125.47;5033608;28;20034;-74
2023/10/03 04:12:25;;;;;;;19.20;11.52;;;;;;;-148.88;100.00;-17125.47;5032289;28;20037;-74
2023/10/03 04:14:50;;;;;;;24.75;12.20;;;;;;;-148.88;100.00;-17125.47;5033650;28;20029;-74
2023/10/03 04:17:16;;;;;;;21.65;11.73;;;;;;;-148.88;100.00;-17125.47;5033508;28;20079;-74
2023/10/03 04:19:41;;;;;;;22.88;12.05;;;;;;;-148.88;100.00;-17125.47;5033361;28;20139;-74
2023/10/03 04:22:06;;;;;;;23.55;12.55;;;;;;;-148.88;100.00;-17125.47;5033456;28;20057;-74
2023/10/03 04:24:32;;;;;;;22.13;11.63;;;;;;;-148.88;100.00;-17125.47;5033381;28;20076;-74
2023/10/03 04:26:59;;;;;;;19.33;10.65;;;;;;;-148.88;100.00;-17125.47;5033361;28;20075;-74
2023/10/03 04:29:24;;;;;;;19.33;11.05;;;;;;;-148.88;100.00;-17125.47;5033478;28;20489;-74
2023/10/03 04:31:49;;;;;;;24.13;11.43;;;;;;;-148.88;100.00;-17125.47;5033372;28;20075;-74
2023/10/03 04:34:18;;;;;;;21.98;11.90;;;;;;;-148.88;100.00;-17125.47;5033164;28;20026;-74
2023/10/03 04:36:45;;;;;;;20.58;10.45;;;;;;;-148.88;100.00;-17125.47;5033227;28;20025;-74
2023/10/03 04:39:11;;;;;;;20.48;10.70;;;;;;;-148.88;100.00;-17125.47;5031812;28;20033;-74
2023/10/03 04:41:42;;;;;;;21.92;11.13;;;;;;;-148.88;100.00;-17125.47;5033196;28;20105;-74
2023/10/03 04:44:08;;;;;;;20.58;10.75;;;;;;;-148.88;100.00;-17125.47;5033168;28;20097;-74
2023/10/03 04:46:33;;;;;;;20.00;10.77;;;;;;;-148.88;100.00;-17125.47;5033146;28;20025;-74
2023/10/03 04:49:01;;;;;;;20.35;10.63;;;;;;;-148.88;100.00;-17125.47;5032177;28;20543;-74
2023/10/03 04:51:26;;;;;;;20.60;10.45;;;;;;;-148.88;100.00;-17125.47;5033049;28;20017;-75
2023/10/03 04:53:52;;;;;;;19.00;10.30;;;;;;;-148.88;100.00;-17125.47;5032964;28;20029;-74
2023/10/03 04:56:17;;;;;;;19.98;10.63;;;;;;;-148.88;100.00;-17125.47;5033228;28;20030;-74
2023/10/03 04:58:42;;;;;;;21.02;10.35;;;;;;;-148.88;99.08;-17125.47;5032863;28;20079;-74
2023/10/03 05:01:08;;;;;;;20.02;10.68;;;;;;;-148.88;99.82;-17125.47;5033402;28;20080;-74
2023/10/03 05:03:33;;;;;;;20.05;10.23;;;;;;;-148.88;98.96;-17125.47;5032888;28;20022;-74
2023/10/03 05:06:01;;;;;;;19.00;10.13;;;;;;;-148.88;97.90;-17125.47;5032914;28;20116;-74
2023/10/03 05:08:26;;;;;;;17.90;9.93;;;;;;;-148.88;97.20;-17125.47;5032826;28;20034;-74
2023/10/03 05:10:54;;;;;;;20.77;10.68;;;;;;;-148.88;97.89;-17125.47;5032934;28;20060;-74
2023/10/03 05:13:19;;;;;;;18.30;9.55;;;;;;;-148.88;97.26;-17125.47;5032731;28;20030;-74
2023/10/03 05:15:45;;;;;;;19.45;10.15;;;;;;;-148.88;97.14;-17125.47;5033064;28;20024;-74
2023/10/03 05:18:10;;;;;;;19.75;10.15;;;;;;;-148.88;95.74;-17125.47;5032716;28;20021;-74
2023/10/03 05:20:40;;;;;;;18.83;9.65;;;;;;;-148.88;95.98;-17125.47;5033221;28;20028;-74
2023/10/03 05:23:06;;;;;;;19.95;10.02;;;;;;;-148.88;95.38;-17125.47;5032687;28;20026;-74
2023/10/03 05:25:36;;;;;;;23.60;10.35;;;;;;;-148.88;94.60;-17125.47;5032658;28;20025;-74
2023/10/03 05:28:02;;;;;;;17.10;9.70;;;;;;;-148.88;94.72;-17125.47;5032960;28;20096;-74
2023/10/03 05:30:30;;;;;;;18.98;9.95;;;;;;;-148.88;93.89;-17125.47;5031279;28;20076;-74
2023/10/03 05:32:55;;;;;;;16.90;9.77;;;;;;;-148.88;94.23;-17125.47;5032595;28;20086;-74
2023/10/03 05:35:21;;;;;;;19.90;10.23;;;;;;;-148.88;94.57;-17125.47;5032562;28;20424;-74
2023/10/03 05:37:47;;;;;;;16.67;9.52;;;;;;;-148.88;94.77;-17125.47;5032578;28;20017;-74
2023/10/03 05:40:15;;;;;;;19.90;10.02;;;;;;;-148.88;94.99;-17125.47;5032433;28;20034;-74
2023/10/03 05:42:43;;;;;;;21.23;10.00;;;;;;;-148.88;95.03;-17125.47;5031318;28;20029;-74
2023/10/03 05:45:13;;;;;;;19.38;9.60;;;;;;;-148.88;95.36;-17125.47;5031209;28;20513;-74
2023/10/03 05:47:45;;;;;;;18.35;9.70;;;;;;;-148.88;94.72;-17125.47;5032496;28;20029;-74
2023/10/03 05:50:23;;;;;;;19.58;9.90;;;;;;;-148.88;95.64;-17125.47;5031079;28;20025;-74
2023/10/03 05:52:49;;;;;;;18.55;9.98;;;;;;;-148.88;95.84;-17125.47;5031144;28;20017;-74
2023/10/03 05:55:15;;;;;;;20.10;10.10;;;;;;;-148.88;96.38;-17125.47;5032378;28;20029;-74
2023/10/03 05:57:42;;;;;;;19.38;9.70;;;;;;;-148.88;96.78;-17125.47;5032395;28;20072;-74
2023/10/03 06:00:18;;;;;;;19.85;10.25;;;;;;;-148.88;96.68;-17125.47;5031456;28;20039;-74
2023/10/03 06:02:47;;;;;;;19.17;10.15;;;;;;;-148.88;96.66;-17125.47;5036412;28;20031;-75
2023/10/03 06:05:13;;;;;;;18.05;9.98;;;;;;;-148.88;97.44;-17125.47;5035998;28;20033;-75
2023/10/03 06:07:41;;;;;;;21.38;10.50;;;;;;;-148.88;97.75;-17125.47;5035916;28;20022;-74
2023/10/03 06:10:07;;;;;;;19.58;9.82;;;;;;;-148.88;98.63;-17125.47;5035740;28;20037;-74
2023/10/03 06:12:32;;;;;;;21.23;9.95;;;;;;;-148.88;98.41;-17125.47;5035757;28;20017;-74
2023/10/03 06:14:58;;;;;;;19.35;10.05;;;;;;;-148.88;98.27;-17125.47;5035903;28;20025;-74
2023/10/03 06:17:23;;;;;;;16.20;9.32;;;;;;;-148.88;98.20;-17125.47;5035784;28;20022;-74
2023/10/03 06:19:50;;;;;;;18.73;9.68;;;;;;;-148.88;98.50;-17125.47;5034451;28;20018;-74
2023/10/03 06:22:16;;;;;;;17.67;10.05;;;;;;;-148.88;98.79;-17125.47;5035700;28;20041;-74
2023/10/03 06:24:41;;;;;;;17.90;9.63;;;;;;;-148.88;99.45;-17125.47;5035832;28;20448;-74
2023/10/03 06:27:09;;;;;;;17.75;9.40;;;;;;;-148.88;98.98;-17125.47;5035569;28;20022;-74
2023/10/03 06:29:35;;;;;;;18.77;9.88;;;;;;;-148.88;99.67;-17125.47;5034235;28;20148;-74
2023/10/03 06:32:01;;;;;;;17.40;9.45;;;;;;;-148.88;99.97;-17125.47;5035446;28;20018;-74
2023/10/03 06:34:26;;;;;;;19.35;9.27;;;;;;;-148.88;100.00;-17125.47;5035543;28;20390;-74
2023/10/03 06:36:52;;;;;;;18.88;8.70;;;;;;;-148.88;100.00;-17125.47;5035712;28;20037;-74
2023/10/03 06:39:18;;;;;;;17.90;9.80;;;;;;;-148.88;99.41;-17125.47;5035336;28;20025;-74
2023/10/03 06:41:43;;;;;;;18.73;10.07;;;;;;;-148.88;99.94;-17125.47;5034182;28;20026;-74
2023/10/03 06:44:09;;;;;;;15.65;9.30;;;;;;;-148.88;100.00;-17125.47;5034109;28;20436;-74
2023/10/03 06:46:34;;;;;;;20.10;9.43;;;;;;;-148.88;100.00;-17125.47;5035436;28;20053;-74
2023/10/03 06:49:01;;;;;;;17.45;9.20;;;;;;;-148.88;100.00;-17125.47;5035090;28;20021;-74
2023/10/03 06:51:26;;;;;;;16.40;9.38;;;;;;;-148.88;100.00;-17125.47;5035162;28;20500;-74
2023/10/03 06:53:52;;;;;;;15.68;8.68;;;;;;;-148.88;100.00;-17125.47;5035016;28;20026;-74
2023/10/03 06:56:19;;;;;;;18.15;8.48;;;;;;;-148.88;100.00;-17125.47;5035118;28;20025;-74
2023/10/03 06:58:46;;;;;;;20.05;9.70;;;;;;;-148.88;100.00;-17125.47;5035035;28;20029;-74
2023/10/03 07:01:12;;;;;;;18.85;9.30;;;;;;;-148.88;100.00;-17125.47;5033767;28;20029;-74
2023/10/03 07:03:40;;;;;;;16.88;8.85;;;;;;;-148.88;99.60;-17125.47;5033760;28;20036;-74
2023/10/03 07:06:05;;;;;;;17.38;9.25;;;;;;;-148.88;100.00;-17125.47;5033658;28;20030;-74
2023/10/03 07:08:31;;;;;;;17.92;9.35;;;;;;;-148.88;100.00;-17125.47;5034860;28;20022;-74
2023/10/03 07:10:57;;;;;;;16.35;8.80;;;;;;;-148.88;100.00;-17125.47;5034937;28;20026;-74
2023/10/03 07:13:24;;;;;;;16.20;8.63;;;;;;;-148.88;100.00;-17125.47;5032579;28;20397;-74
2023/10/03 07:15:49;;;;;;;16.13;9.10;;;;;;;-148.88;100.00;-17125.47;5035036;28;20083;-74
2023/10/03 07:18:15;;;;;;;19.27;8.98;;;;;;;-148.88;100.00;-17125.47;5033357;28;20022;-75
2023/10/03 07:20:40;;;;;;;17.38;9.18;;;;;;;-148.88;100.00;-17125.47;5034616;28;20032;-74
2023/10/03 07:23:06;;;;;;;15.13;8.50;;;;;;;-148.88;100.00;-17125.47;5034639;28;20474;-74
2023/10/03 07:25:32;;;;;;;18.17;9.50;;;;;;;-148.88;100.00;-17125.47;5034579;28;20375;-75
2023/10/03 07:27:58;;;;;;;16.02;9.20;;;;;;;-148.88;100.00;-17125.47;5034527;28;20025;-74
2023/10/03 07:30:23;;;;;;;15.43;9.38;;;;;;;-148.88;100.00;-17125.47;5034436;28;20035;-74
2023/10/03 07:32:49;;;;;;;18.15;9.38;;;;;;;-148.88;100.00;-17125.47;5034629;28;20030;-74
2023/10/03 07:35:17;;;;;;;15.00;8.90;;;;;;;-148.88;100.00;-17125.47;5034355;28;20143;-74
2023/10/03 07:37:43;;;;;;;17.67;9.05;;;;;;;-148.88;100.00;-17125.47;5034271;28;20021;-74
2023/10/03 07:40:09;;;;;;;15.80;8.48;;;;;;;-148.88;100.00;-17125.47;5034173;28;20035;-74
2023/10/03 07:42:34;;;;;;;15.90;9.15;;;;;;;-148.88;100.00;-17125.47;5032940;28;20367;-74
2023/10/03 07:45:00;;;;;;;16.88;8.85;;;;;;;-148.88;100.00;-17125.47;5032790;28;20024;-74
2023/10/03 07:47:25;;;;;;;17.52;9.27;;;;;;;-148.88;100.00;-17125.47;5034128;28;20034;-74
2023/10/03 07:49:51;;;;;;;14.45;8.52;;;;;;;-148.88;100.00;-17125.47;5033992;28;20053;-75
2023/10/03 07:52:19;;;;;;;16.73;9.52;;;;;;;-148.88;100.00;-17125.47;5033972;28;20390;-74
2023/10/03 07:54:49;;;;;;;17.33;9.07;;;;;;;-148.88;100.00;-17125.47;5034085;28;20030;-74
2023/10/03 07:57:15;;;;;;;16.85;9.15;;;;;;;-148.88;100.00;-17125.47;5032730;28;20052;-74
2023/10/03 07:59:43;;;;;;;16.67;9.43;;;;;;;-148.88;100.00;-17125.47;5032578;28;20112;-74
2023/10/03 08:02:10;;;;;;;14.88;9.15;;;;;;;-148.88;100.00;-17125.47;5032576;28;20502;-74
2023/10/03 08:04:37;;;;;;;18.13;9.77;;;;;;;-148.88;100.00;-17125.47;5033782;28;20408;-74
2023/10/03 08:07:04;;;;;;;19.75;10.20;;;;;;;-148.88;100.00;-17125.47;5033759;28;20528;-74
2023/10/03 08:09:31;;;;;;;19.27;9.98;;;;;;;-148.88;100.00;-17125.47;5039560;23;20045;-85
2023/10/03 08:11:57;;;;;;;19.50;9.00;;;;;;;-148.88;100.00;-17125.47;5033166;28;20041;-84
2023/10/03 08:14:23;;;;;;;18.55;10.32;;;;;;;-148.88;100.00;-17125.47;5034409;28;20032;-85
2023/10/03 08:16:48;;;;;;;17.83;9.60;;;;;;;-148.88;100.00;-17125.47;5033571;28;20030;-85
2023/10/03 08:19:22;;;;;;;19.52;9.20;;;;;;;-148.88;100.00;-17125.47;5033361;28;20029;-85
2023/10/03 08:21:48;;;;;;;;;;;;;;;-148.88;100.00;-17125.47;5034020;28;20087;-85
2023/10/03 08:24:18;;;;;;;16.27;10.07;;;;;;;-148.88;100.00;-17125.47;5087296;23;19921;-86
2023/10/03 08:26:50;;;;;;;19.88;10.27;;;;;;;-148.88;100.00;-17125.47;5032586;28;20439;-87
2023/10/03 08:29:21;;;;;;;18.40;10.63;;;;;;;-148.88;100.00;-17125.47;5032652;28;20413;-86
2023/10/03 08:31:57;;;;;;;14.93;9.65;;;;;;;-148.88;100.00;-17125.47;5032425;28;20048;-90
2023/10/03 08:34:30;;;;;;;16.98;10.02;;;;;;;-148.88;100.00;-17125.47;5034554;28;20030;-86
2023/10/03 08:37:00;;;;;;;17.83;9.65;;;;;;;-148.88;100.00;-17125.47;5032741;28;20398;-87
2023/10/03 08:39:32;;;;;;;19.30;9.30;;;;;;;-148.88;100.00;-17125.47;5032944;28;20033;-88
2023/10/03 08:42:15;;;;;;;19.23;9.85;;;;;;;-148.88;100.00;-17125.47;5032888;28;20021;-87
2023/10/03 08:44:54;;;;;;;15.43;9.23;;;;;;;-148.88;100.00;-17125.47;5033676;28;20022;-89
2023/10/03 08:47:30;;;;;;;21.63;9.48;;;;;;;-148.88;100.00;-17125.47;5032164;28;20034;-88
2023/10/03 08:50:34;;;;;;;15.48;8.95;;;;;;;-148.88;100.00;-17125.47;5032186;28;20029;-86
2023/10/03 08:53:12;;;;;;;13.55;8.32;;;;;;;-148.88;100.00;-17125.47;5031941;28;20021;-88
2023/10/03 08:55:44;;;;;;;14.23;7.35;;;;;;;-148.88;100.00;-17125.47;5033243;28;20036;-87
2023/10/03 08:58:14;;;;;;;13.27;7.28;;;;;;;-148.88;100.00;-17125.47;5032093;28;20025;-85
2023/10/03 09:00:48;;;;;;;14.00;7.45;;;;;;;-148.88;100.00;-17125.47;5031946;28;20095;-85
2023/10/03 09:03:15;;;;;;;11.93;7.10;;;;;;;-148.88;100.00;-17125.47;5033390;28;20022;-86
2023/10/03 09:05:42;;;;;;;11.65;6.70;;;;;;;-148.88;100.00;-17125.47;5031719;28;20112;-86
2023/10/03 09:08:09;;;;;;;11.10;7.10;;;;;;;-148.88;100.00;-17125.47;5032817;28;20541;-89
2023/10/03 09:10:42;;;;;;;12.70;6.95;;;;;;;-148.88;100.00;-17125.47;5031980;28;20493;-87
2023/10/03 09:13:15;;;;;;;11.95;6.45;;;;;;;-148.88;100.00;-17125.47;5032980;28;20490;-87
2023/10/03 09:15:45;;;;;;;11.48;6.47;;;;;;;-148.88;100.00;-17125.47;5033316;28;20052;-85
2023/10/03 09:18:21;;;;;;;11.70;6.85;;;;;;;-148.88;100.00;-17125.47;5032151;28;20064;-87
2023/10/03 09:20:49;;;;;;;12.82;7.70;;;;;;;-148.88;100.00;-17125.47;5032907;28;20026;-87
2023/10/03 09:23:17;;;;;;;13.50;7.03;;;;;;;-148.88;100.00;-17125.47;5031911;28;20056;-88
2023/10/03 09:25:48;;;;;;;12.52;7.35;;;;;;;-148.88;100.00;-17125.47;5032369;28;20036;-88
2023/10/03 09:28:14;;;;;;;12.38;6.35;;;;;;;-148.88;100.00;-17125.47;5032310;28;20035;-87
2023/10/03 09:30:40;;;;;;;10.68;5.85;;;;;;;-148.88;100.00;-17125.47;5031865;28;20029;-87
2023/10/03 09:33:12;;;;;;;7.28;4.90;;;;;;;-148.88;100.00;-17125.47;5032001;28;20026;-87
2023/10/03 09:35:39;;;;;;;9.32;4.93;;;;;;;-148.88;100.00;-17125.47;5034393;28;20036;-88
2023/10/03 09:38:08;;;;;;;9.43;4.40;;;;;;;-148.88;100.00;-17125.47;5035961;28;20108;-88
2023/10/03 09:40:51;;;;;;;7.90;4.28;;;;;;;-148.88;100.00;-17125.47;5037303;28;20482;-87
2023/10/03 09:43:27;;;;;;;7.13;4.50;;;;;;;-148.88;100.00;-17125.47;5036029;28;20393;-87
2023/10/03 09:45:56;;;;;;;7.15;4.55;;;;;;;-148.88;100.00;-17125.47;5036812;28;20034;-89
2023/10/03 09:48:24;;;;;;;7.88;4.53;;;;;;;-148.88;100.00;-17125.47;5036293;28;20021;-88
2023/10/03 09:51:05;;;;;;;8.75;4.70;;;;;;;-148.88;100.00;-17125.47;5035781;28;20490;-89
2023/10/03 09:53:36;;;;;;;7.60;5.18;;;;;;;-148.88;100.00;-17125.47;5036743;28;20029;-87
2023/10/03 09:56:19;;;;;;;9.90;5.47;;;;;;;-148.88;100.00;-17125.47;5035788;28;20030;-88
2023/10/03 09:58:48;;;;;;;9.27;4.95;;;;;;;-148.88;100.00;-17125.47;5035535;28;20030;-88
2023/10/03 10:01:13;;;;;;;9.70;5.45;;;;;;;-148.88;100.00;-17125.47;5037276;28;20137;-89
2023/10/03 10:03:46;;;;;;;10.63;6.25;;;;;;;-148.88;100.00;-17125.47;5035522;28;20060;-87
2023/10/03 10:06:37;;;;;;;9.68;6.00;;;;;;;-148.88;100.00;-17125.47;5035412;28;20021;-88
2023/10/03 10:09:27;;;;;;;10.00;6.13;;;;;;;-148.88;100.00;-17125.47;5034757;28;20037;-88
2023/10/03 10:12:11;;;;;;;11.07;7.13;;;;;;;-148.88;100.00;-17125.47;5036567;28;20489;-87
2023/10/03 10:15:01;;;;;;;10.07;6.40;;;;;;;-148.88;100.00;-17125.47;5036611;28;20034;-89
2023/10/03 10:17:45;;;;;;;10.48;6.95;;;;;;;-148.88;100.00;-17125.47;5037020;28;20049;-89
2023/10/03 10:20:27;;;;;;;11.95;7.10;;;;;;;-148.88;100.00;-17125.47;5037377;28;20108;-86
2023/10/03 10:22:58;;;;;;;14.98;6.95;;;;;;;-148.88;100.00;-17125.47;5036527;28;20017;-88
2023/10/03 10:25:43;;;;;;;10.40;6.68;;;;;;;-148.88;100.00;-17125.47;5036922;28;20025;-90
2023/10/03 10:28:20;;;;;;;10.50;6.75;;;;;;;-148.88;100.00;-17125.47;5035355;28;20078;-89
2023/10/03 10:31:11;;;;;;;10.98;6.47;;;;;;;-148.88;100.00;-17125.47;5036257;28;20024;-90
2023/10/03 10:33:37;;;;;;;11.55;6.90;;;;;;;-148.88;100.00;-17125.47;5034920;28;20497;-88
2023/10/03 10:36:03;;;;;;;10.70;6.93;;;;;;;-148.88;100.00;-17125.47;5036285;28;20394;-88
2023/10/03 10:38:33;;;;;;;11.23;7.30;;;;;;;-148.88;100.00;-17125.47;5034735;28;20444;-88
2023/10/03 10:41:17;;;;;;;11.90;6.88;;;;;;;-148.88;100.00;-17125.47;5035701;28;20021;-91
2023/10/03 10:44:09;;;;;;;10.57;6.97;;;;;;;-148.88;100.00;-17125.47;5034586;28;20029;-85
2023/10/03 10:46:46;;;;;;;12.30;7.25;;;;;;;-148.88;100.00;-17125.47;5033681;28;20048;-89
2023/10/03 10:49:30;;;;;;;10.80;7.30;;;;;;;-148.88;100.00;-17125.47;5035156;28;20390;-88
2023/10/03 10:52:17;;;;;;;;;;;;;;;-148.88;100.00;-17125.47;5035197;28;20032;-89
2023/10/03 10:54:43;;;;;;;9.63;6.35;;;;;;;-148.88;100.00;-17125.47;5036725;28;19920;-89
2023/10/03 10:57:17;;;;;;;10.30;6.68;;;;;;;-148.88;100.00;-17125.47;5036314;28;20025;-89
2023/10/03 10:59:43;;;;;;;12.43;7.05;;;;;;;-148.88;100.00;-17125.47;5033846;28;20441;-88
2023/10/03 11:02:24;;;;;;;10.15;6.63;;;;;;;-148.88;100.00;-17125.47;5035708;28;20464;-89
2023/10/03 11:04:54;;;;;;;10.55;6.15;;;;;;;-148.88;100.00;-17125.47;5035214;28;20096;-87